Cullen, Louisiana
Current Conditions -  °F | °C
As of 7:36 AM on Sunday 23 Nov 2014 (Local Time) from KMNE Reporting Station
Moderate Rain Moderate Rain  
Wind Chill: 63°   Ceiling: 1700
Heat Index: 63°   Visibility: 4mi
Dew Point: 61°   Wind: 0mph
Humidity: 94%   Direction: NA
Pressure: 29.59"   Gusts: NA
Location:  32.97°N, 93.45°W
Report Text: KMNE 231336Z AUTO 00000KT 4SM RA SCT007 BKN017 OVC080 17/16 A2959 RMK AO2 LTG DSNT E P0008
Loading
Personal Weather Stations






























Interactive Weather Map New forecast layout! Learn more

10-Day Weather Forecast

Advertisements
Track Severe Weather on mobile